Time;durP1;ratioP1;P1;durP2;ratioP2;P2;SDS_P1;SDS_P2;PMS_P1;PMS_P2;Temp;Humidity;BMP_temperature;BMP_pressure;BME280_temperature;BME280_humidity;BME280_pressure;Samples;Min_cycle;Max_cycle;Signal;HPM_P1;HPM_P2
2022/07/27 00:02:05;;;;;;;0.90;0.30;;;25.50;40.00;;;;;;5011118;28;20135;-53
2022/07/27 00:04:31;;;;;;;1.60;0.57;;;25.50;40.00;;;;;;5008802;28;20025;-50
2022/07/27 00:06:57;;;;;;;0.52;0.28;;;25.50;40.10;;;;;;5009360;28;20440;-50
2022/07/27 00:09:23;;;;;;;1.75;0.40;;;25.40;40.00;;;;;;5011070;28;20037;-49
2022/07/27 00:11:49;;;;;;;1.15;0.50;;;25.40;40.00;;;;;;5011798;28;20453;-52
2022/07/27 00:14:15;;;;;;;0.55;0.40;;;25.40;40.10;;;;;;5011287;28;20053;-50
2022/07/27 00:16:41;;;;;;;0.85;0.38;;;25.40;40.10;;;;;;5011472;28;20338;-50
2022/07/27 00:19:06;;;;;;;2.92;0.70;;;25.40;40.10;;;;;;5011016;28;20026;-51
2022/07/27 00:21:32;;;;;;;1.33;0.50;;;25.40;40.10;;;;;;5008911;28;20038;-53
2022/07/27 00:23:58;;;;;;;1.58;0.50;;;25.30;40.10;;;;;;5010786;28;20105;-51
2022/07/27 00:26:24;;;;;;;1.35;0.50;;;25.30;40.10;;;;;;5010079;28;20072;-50
2022/07/27 00:28:49;;;;;;;2.00;0.47;;;25.30;40.10;;;;;;5008322;28;20034;-53
2022/07/27 00:31:16;;;;;;;1.98;0.60;;;25.30;40.10;;;;;;5010488;28;20025;-50
2022/07/27 00:33:42;;;;;;;1.83;0.55;;;25.30;40.10;;;;;;5010305;28;20121;-51
2022/07/27 00:36:08;;;;;;;1.38;0.40;;;25.30;40.20;;;;;;5009726;28;20124;-52
2022/07/27 00:38:34;;;;;;;1.00;0.30;;;25.30;40.20;;;;;;5010152;28;20034;-48
2022/07/27 00:41:00;;;;;;;1.42;0.43;;;25.30;40.20;;;;;;5010559;28;20045;-54
2022/07/27 00:43:26;;;;;;;1.02;0.50;;;25.30;40.20;;;;;;5010797;28;20022;-51
2022/07/27 00:45:51;;;;;;;2.38;0.40;;;25.30;40.20;;;;;;5010328;28;20368;-53
2022/07/27 00:48:17;;;;;;;1.38;0.63;;;25.20;40.20;;;;;;5010309;28;20051;-53
2022/07/27 00:50:45;;;;;;;0.88;0.30;;;25.30;40.20;;;;;;5009367;28;20373;-52
2022/07/27 00:53:12;;;;;;;1.00;0.45;;;25.20;40.20;;;;;;5009576;28;20095;-53
2022/07/27 00:55:39;;;;;;;2.05;0.55;;;25.20;40.10;;;;;;5011085;28;20052;-53
2022/07/27 00:58:07;;;;;;;1.15;0.35;;;25.20;40.20;;;;;;5008354;28;20034;-52
2022/07/27 01:00:35;;;;;;;1.40;0.50;;;25.20;40.20;;;;;;5010670;28;20050;-53
2022/07/27 01:03:02;;;;;;;1.52;0.57;;;25.10;40.20;;;;;;5009451;28;20036;-53
2022/07/27 01:05:28;;;;;;;0.65;0.30;;;25.10;40.20;;;;;;5008750;28;20092;-53
2022/07/27 01:07:54;;;;;;;1.67;0.68;;;25.20;40.30;;;;;;5007131;28;20441;-53
2022/07/27 01:10:20;;;;;;;1.55;0.52;;;25.20;40.30;;;;;;5011541;28;20104;-53
2022/07/27 01:12:46;;;;;;;2.13;0.73;;;25.10;40.20;;;;;;5007840;28;20056;-55
2022/07/27 01:15:12;;;;;;;1.40;0.50;;;25.10;40.30;;;;;;5010484;28;20025;-51
2022/07/27 01:17:38;;;;;;;2.67;0.63;;;25.10;40.30;;;;;;5008945;28;20034;-53
2022/07/27 01:20:04;;;;;;;1.80;0.40;;;25.10;40.30;;;;;;5008234;28;20095;-56
2022/07/27 01:22:30;;;;;;;2.95;0.30;;;25.10;40.30;;;;;;5006273;28;20041;-54
2022/07/27 01:24:56;;;;;;;1.42;0.47;;;25.10;40.30;;;;;;5010898;28;20365;-55
2022/07/27 01:27:22;;;;;;;2.10;0.47;;;25.10;40.30;;;;;;5009075;28;20030;-54
2022/07/27 01:29:48;;;;;;;2.38;0.70;;;25.10;40.30;;;;;;5009037;28;20026;-54
2022/07/27 01:32:15;;;;;;;2.28;0.50;;;25.10;40.40;;;;;;5009069;28;20026;-50
2022/07/27 01:34:41;;;;;;;3.30;0.63;;;25.00;40.30;;;;;;5009793;28;20056;-55
2022/07/27 01:37:06;;;;;;;2.28;0.43;;;25.00;40.40;;;;;;5007400;28;20030;-55
2022/07/27 01:39:33;;;;;;;1.50;0.60;;;25.00;41.00;;;;;;5008176;28;20109;-54
2022/07/27 01:41:59;;;;;;;2.80;0.60;;;25.00;40.40;;;;;;5009157;28;20084;-52
2022/07/27 01:44:25;;;;;;;1.20;0.45;;;25.00;40.40;;;;;;5008087;28;20445;-53
2022/07/27 01:46:51;;;;;;;2.58;0.50;;;25.00;40.40;;;;;;5009670;28;20026;-55
2022/07/27 01:49:17;;;;;;;0.65;0.38;;;25.00;40.50;;;;;;5010144;28;20032;-53
2022/07/27 01:51:43;;;;;;;1.70;0.52;;;25.00;40.50;;;;;;5009753;28;20114;-56
2022/07/27 01:54:09;;;;;;;1.30;0.55;;;24.90;40.40;;;;;;5008191;28;20042;-56
2022/07/27 01:56:35;;;;;;;1.75;0.45;;;24.90;40.50;;;;;;5007253;28;20231;-56
2022/07/27 01:59:00;;;;;;;1.55;0.47;;;24.90;40.50;;;;;;5007553;28;20513;-54
2022/07/27 02:01:26;;;;;;;2.17;0.50;;;24.90;40.50;;;;;;5005635;28;20365;-54
2022/07/27 02:03:52;;;;;;;2.10;0.75;;;24.90;40.50;;;;;;5006480;28;20053;-52
2022/07/27 02:06:18;;;;;;;3.10;0.55;;;24.80;40.50;;;;;;5008081;28;20032;-52
2022/07/27 02:08:44;;;;;;;1.75;0.70;;;24.80;40.50;;;;;;5006051;28;20030;-52
2022/07/27 02:13:54;;;;;;;1.05;0.40;;;24.80;40.60;;;;;;5006533;28;20041;-54
2022/07/27 02:16:20;;;;;;;1.40;0.50;;;24.80;40.60;;;;;;5009023;28;20026;-48
2022/07/27 02:18:46;;;;;;;0.82;0.30;;;24.80;40.60;;;;;;5008938;28;20033;-53
2022/07/27 02:21:13;;;;;;;1.23;0.38;;;24.80;40.60;;;;;;5007948;28;20042;-53
2022/07/27 02:23:39;;;;;;;2.17;0.45;;;24.80;40.60;;;;;;5006790;28;20038;-49
2022/07/27 02:26:07;;;;;;;1.92;0.50;;;24.80;40.60;;;;;;5008650;28;20022;-55
2022/07/27 02:28:34;;;;;;;2.30;0.50;;;24.80;40.60;;;;;;5006006;28;20115;-55
2022/07/27 02:31:00;;;;;;;2.13;0.50;;;24.80;40.70;;;;;;5008497;28;20030;-52
2022/07/27 02:33:27;;;;;;;1.35;0.40;;;24.80;40.70;;;;;;5007451;28;20027;-49
2022/07/27 02:35:53;;;;;;;0.93;0.30;;;24.80;40.70;;;;;;5006496;28;20026;-56
2022/07/27 02:38:18;;;;;;;0.80;0.30;;;24.70;40.70;;;;;;5005877;28;20495;-49
2022/07/27 02:40:44;;;;;;;2.17;0.40;;;24.70;40.70;;;;;;5005520;28;20129;-54
2022/07/27 02:43:11;;;;;;;2.90;0.60;;;24.70;40.80;;;;;;5007646;28;20044;-51
2022/07/27 02:45:37;;;;;;;1.77;0.65;;;24.70;40.70;;;;;;5009607;28;20045;-52
2022/07/27 02:48:03;;;;;;;1.52;0.57;;;24.70;40.70;;;;;;5009617;28;20373;-55
2022/07/27 02:50:29;;;;;;;1.08;0.50;;;24.70;40.80;;;;;;5013027;28;20042;-54
2022/07/27 02:52:54;;;;;;;1.05;0.40;;;24.70;40.80;;;;;;5010199;28;20022;-51
2022/07/27 02:55:20;;;;;;;1.15;0.30;;;24.70;40.80;;;;;;4975075;28;1142753;-54
2022/07/27 02:57:46;;;;;;;0.60;0.32;;;24.70;40.80;;;;;;5014792;28;20129;-52
2022/07/27 03:00:14;;;;;;;1.30;0.38;;;24.70;40.80;;;;;;5018771;28;20129;-51
2022/07/27 03:02:40;;;;;;;1.70;0.47;;;24.60;40.80;;;;;;5019097;28;20073;-56
2022/07/27 03:05:07;;;;;;;0.70;0.32;;;24.70;40.80;;;;;;5018458;28;20053;-54
2022/07/27 03:07:33;;;;;;;1.23;0.57;;;24.60;40.80;;;;;;5013807;28;20033;-54
2022/07/27 03:09:59;;;;;;;1.65;0.40;;;24.60;40.80;;;;;;5017867;28;20352;-52
2022/07/27 03:12:25;;;;;;;1.40;0.40;;;24.60;40.80;;;;;;5018698;28;20034;-53
2022/07/27 03:14:51;;;;;;;3.22;0.88;;;24.60;40.90;;;;;;5018346;28;20084;-54
2022/07/27 03:17:17;;;;;;;1.45;0.40;;;24.60;40.90;;;;;;5001545;28;20030;-48
2022/07/27 03:19:43;;;;;;;1.52;0.50;;;24.60;40.90;;;;;;4999026;28;20073;-54
2022/07/27 03:22:08;;;;;;;2.67;0.57;;;24.60;40.90;;;;;;4999397;28;20596;-50
2022/07/27 03:24:34;;;;;;;2.20;0.57;;;24.50;40.90;;;;;;5007682;28;20064;-52
2022/07/27 03:27:00;;;;;;;2.03;0.60;;;24.50;40.90;;;;;;5018116;28;20045;-51
2022/07/27 03:29:26;;;;;;;0.93;0.35;;;24.50;40.90;;;;;;5018465;28;20033;-53
2022/07/27 03:31:52;;;;;;;1.00;0.50;;;24.50;41.00;;;;;;5018376;28;20452;-55
2022/07/27 03:34:18;;;;;;;1.77;0.50;;;24.50;41.00;;;;;;5019027;28;20241;-53
2022/07/27 03:36:44;;;;;;;2.33;0.60;;;24.50;41.00;;;;;;5017269;28;20038;-51
2022/07/27 03:39:12;;;;;;;0.85;0.55;;;24.50;41.00;;;;;;5017225;28;20045;-54
2022/07/27 03:41:38;;;;;;;1.30;0.70;;;24.50;41.00;;;;;;5018159;28;20080;-55
2022/07/27 03:44:03;;;;;;;1.65;0.90;;;24.50;41.10;;;;;;5018489;28;20029;-56
2022/07/27 03:46:29;;;;;;;1.85;0.45;;;24.50;41.10;;;;;;5014621;28;20458;-53
2022/07/27 03:48:56;;;;;;;1.00;0.45;;;24.40;41.10;;;;;;4998577;28;20035;-53
2022/07/27 03:51:22;;;;;;;1.27;0.60;;;24.40;41.10;;;;;;4998526;28;20038;-53
2022/07/27 03:53:48;;;;;;;1.42;0.60;;;24.40;41.10;;;;;;5014818;28;20112;-56
2022/07/27 03:56:14;;;;;;;1.98;0.60;;;24.40;41.10;;;;;;5016731;28;20361;-51
2022/07/27 03:58:40;;;;;;;0.82;0.50;;;24.40;41.10;;;;;;4998058;28;20433;-54
2022/07/27 04:01:06;;;;;;;1.33;0.35;;;24.40;41.10;;;;;;5011686;28;20050;-52
2022/07/27 04:03:31;;;;;;;1.50;0.50;;;24.40;41.10;;;;;;5013816;28;20186;-53
2022/07/27 04:05:57;;;;;;;1.77;0.50;;;24.40;41.20;;;;;;5009495;28;20045;-54
2022/07/27 04:08:23;;;;;;;1.70;0.60;;;24.40;41.20;;;;;;5011650;28;20032;-53
2022/07/27 04:10:49;;;;;;;1.23;0.60;;;24.40;41.20;;;;;;5012884;28;20400;-53
2022/07/27 04:13:15;;;;;;;2.00;0.60;;;24.30;41.20;;;;;;5013027;28;20018;-54
2022/07/27 04:15:41;;;;;;;1.10;0.40;;;24.40;41.30;;;;;;5011109;28;20488;-50
2022/07/27 04:18:06;;;;;;;1.23;0.60;;;24.40;41.30;;;;;;5013605;28;20022;-54
2022/07/27 04:20:32;;;;;;;1.45;0.60;;;24.30;41.20;;;;;;5012920;28;20057;-54
2022/07/27 04:22:58;;;;;;;1.48;0.68;;;24.30;41.30;;;;;;5014322;28;20038;-56
2022/07/27 04:25:24;;;;;;;1.67;0.50;;;24.30;41.30;;;;;;5016855;28;20495;-49
2022/07/27 04:27:53;;;;;;;1.70;0.45;;;24.30;41.30;;;;;;5017301;28;20030;-53
2022/07/27 04:30:19;;;;;;;2.05;0.40;;;24.30;41.30;;;;;;5017065;28;20046;-54
2022/07/27 04:32:44;;;;;;;1.42;0.40;;;24.30;41.30;;;;;;5016762;28;20036;-54
2022/07/27 04:35:10;;;;;;;1.80;0.50;;;24.30;41.30;;;;;;5016623;28;20052;-55
2022/07/27 04:37:36;;;;;;;1.88;0.50;;;24.30;41.40;;;;;;5014958;28;20441;-55
2022/07/27 04:40:02;;;;;;;0.90;0.30;;;24.30;41.40;;;;;;5016887;28;20052;-51
2022/07/27 04:42:28;;;;;;;2.28;0.40;;;24.30;41.40;;;;;;5016008;28;20045;-55
2022/07/27 04:44:54;;;;;;;1.50;0.40;;;24.30;41.50;;;;;;5016878;28;20044;-52
2022/07/27 04:47:20;;;;;;;1.33;0.50;;;24.30;41.50;;;;;;5010825;28;20080;-54
2022/07/27 04:49:46;;;;;;;1.42;0.47;;;24.20;41.50;;;;;;5016641;28;20118;-47
2022/07/27 04:52:14;;;;;;;0.80;0.35;;;24.30;41.50;;;;;;5015620;28;20037;-51
2022/07/27 04:54:41;;;;;;;1.58;0.40;;;24.30;42.20;;;;;;5016364;28;20061;-50
2022/07/27 04:57:06;;;;;;;2.42;0.47;;;24.20;41.50;;;;;;5016005;28;20026;-52
2022/07/27 04:59:32;;;;;;;2.80;0.50;;;24.20;41.60;;;;;;5016571;28;20026;-54
2022/07/27 05:01:58;;;;;;;1.00;0.40;;;24.20;41.60;;;;;;5016755;28;20115;-54
2022/07/27 05:04:23;;;;;;;2.30;0.43;;;24.20;41.60;;;;;;5015273;28;20049;-53
2022/07/27 05:06:49;;;;;;;1.52;0.50;;;24.20;41.60;;;;;;5015543;28;20034;-52
2022/07/27 05:09:15;;;;;;;1.08;0.50;;;24.20;41.70;;;;;;5015136;28;20034;-53
2022/07/27 05:11:41;;;;;;;1.08;0.40;;;24.20;41.70;;;;;;5014978;28;20057;-56
2022/07/27 05:14:07;;;;;;;1.60;0.43;;;24.20;41.70;;;;;;5015729;28;20041;-53
2022/07/27 05:16:32;;;;;;;0.88;0.30;;;24.20;41.70;;;;;;5016147;28;20119;-50
2022/07/27 05:18:58;;;;;;;1.23;0.40;;;24.20;41.70;;;;;;5014253;28;20037;-55
2022/07/27 05:21:26;;;;;;;1.02;0.40;;;24.20;41.70;;;;;;5005124;28;20066;-52
2022/07/27 05:23:52;;;;;;;1.67;0.50;;;24.20;41.80;;;;;;5008557;28;20472;-52
2022/07/27 05:26:18;;;;;;;2.10;0.50;;;24.20;41.80;;;;;;5011504;28;20476;-51
2022/07/27 05:28:43;;;;;;;1.98;0.63;;;24.20;41.90;;;;;;5011031;28;20113;-52
2022/07/27 05:31:09;;;;;;;2.65;0.80;;;24.20;41.90;;;;;;5010937;28;20041;-53
2022/07/27 05:33:35;;;;;;;1.25;0.60;;;24.20;42.00;;;;;;5010630;28;20417;-53
2022/07/27 05:36:01;;;;;;;1.63;0.63;;;24.20;42.10;;;;;;5010853;28;20146;-54
2022/07/27 05:38:26;;;;;;;2.28;0.60;;;24.20;42.10;;;;;;5010559;28;20036;-54
2022/07/27 05:40:52;;;;;;;1.17;0.40;;;24.20;42.20;;;;;;5010554;28;20437;-52
2022/07/27 05:43:18;;;;;;;3.35;1.30;;;24.20;42.30;;;;;;5012632;28;20450;-53
2022/07/27 05:45:44;;;;;;;1.02;0.30;;;24.20;42.40;;;;;;5009629;28;20037;-54
2022/07/27 05:48:10;;;;;;;2.83;0.55;;;24.10;42.40;;;;;;5008552;28;20456;-51
2022/07/27 05:50:35;;;;;;;2.35;0.60;;;24.10;42.40;;;;;;5011079;28;20064;-56
2022/07/27 05:53:02;;;;;;;1.10;0.40;;;24.10;42.50;;;;;;5010019;28;20021;-55
2022/07/27 05:55:28;;;;;;;0.73;0.47;;;24.20;42.70;;;;;;5011062;28;20129;-54
2022/07/27 05:57:54;;;;;;;1.00;0.30;;;24.10;42.60;;;;;;5010883;28;20491;-52
2022/07/27 06:00:20;;;;;;;0.88;0.50;;;24.10;42.70;;;;;;5010252;28;20058;-54
2022/07/27 06:02:46;;;;;;;0.93;0.30;;;24.10;42.70;;;;;;5007886;28;20080;-55
2022/07/27 06:05:11;;;;;;;0.95;0.35;;;24.10;42.80;;;;;;5010185;28;20026;-55
2022/07/27 06:10:22;;;;;;;1.40;0.47;;;24.10;42.90;;;;;;5011107;28;20026;-55
2022/07/27 06:12:47;;;;;;;5.05;0.40;;;24.10;42.90;;;;;;5010688;28;20449;-52
2022/07/27 06:15:15;;;;;;;0.63;0.20;;;24.10;43.00;;;;;;5010386;28;20082;-55
2022/07/27 06:17:42;;;;;;;1.00;0.30;;;24.10;43.00;;;;;;5008365;28;20392;-51
2022/07/27 06:20:08;;;;;;;1.50;0.50;;;24.10;43.10;;;;;;5010390;28;20029;-53
2022/07/27 06:22:46;;;;;;;1.60;0.50;;;24.10;43.10;;;;;;5000972;28;20046;-51
2022/07/27 06:25:12;;;;;;;0.98;0.40;;;24.10;43.20;;;;;;5010604;28;20104;-54
2022/07/27 06:27:38;;;;;;;0.80;0.30;;;24.10;43.20;;;;;;5010451;28;20034;-53
2022/07/27 06:30:06;;;;;;;1.67;0.45;;;24.10;43.20;;;;;;5007768;28;20030;-58
2022/07/27 06:32:32;;;;;;;2.97;0.73;;;24.10;43.20;;;;;;5008203;28;20034;-56
2022/07/27 06:34:59;;;;;;;1.38;0.50;;;24.10;43.30;;;;;;5010637;28;20033;-55
2022/07/27 06:37:26;;;;;;;4.85;0.85;;;24.10;43.30;;;;;;5011048;28;20026;-53
2022/07/27 06:39:52;;;;;;;4.00;1.10;;;24.10;43.30;;;;;;5011186;28;20038;-57
2022/07/27 06:42:18;;;;;;;5.13;1.70;;;24.10;43.30;;;;;;5011572;28;20096;-56
2022/07/27 06:44:43;;;;;;;5.32;1.13;;;24.10;43.30;;;;;;5009917;28;20026;-54
2022/07/27 06:47:09;;;;;;;5.03;1.23;;;24.10;43.30;;;;;;5006985;28;20030;-56
2022/07/27 06:49:35;;;;;;;3.55;1.20;;;24.10;43.30;;;;;;5009658;28;20406;-54
2022/07/27 06:52:01;;;;;;;4.15;1.00;;;24.10;43.30;;;;;;5011230;28;20124;-57
2022/07/27 06:54:27;;;;;;;4.60;1.20;;;24.10;43.30;;;;;;5009000;28;20038;-56
2022/07/27 06:56:53;;;;;;;3.88;0.85;;;24.10;43.30;;;;;;5007386;28;21559;-52
2022/07/27 06:59:18;;;;;;;2.40;0.80;;;24.10;43.30;;;;;;5009644;28;20029;-52
2022/07/27 07:01:44;;;;;;;4.80;0.90;;;24.10;43.30;;;;;;5009277;28;20070;-52
2022/07/27 07:04:10;;;;;;;4.22;1.17;;;24.10;43.30;;;;;;5009891;28;20029;-56
2022/07/27 07:06:36;;;;;;;2.85;1.08;;;24.20;43.40;;;;;;5009561;28;20038;-55
2022/07/27 07:09:02;;;;;;;3.03;1.00;;;24.20;43.40;;;;;;5008315;28;20022;-56
2022/07/27 07:11:28;;;;;;;4.78;1.23;;;24.20;43.50;;;;;;5010737;28;20030;-53
2022/07/27 07:13:54;;;;;;;2.20;0.80;;;24.20;43.40;;;;;;5010086;28;20034;-53
2022/07/27 07:16:20;;;;;;;2.45;0.73;;;24.20;43.50;;;;;;5014658;28;20033;-55
2022/07/27 07:18:45;;;;;;;3.25;1.13;;;24.20;43.50;;;;;;5014941;28;20041;-57
2022/07/27 07:21:11;;;;;;;2.70;0.90;;;24.30;43.50;;;;;;5014825;28;20078;-52
2022/07/27 07:23:37;;;;;;;3.17;0.75;;;24.20;43.50;;;;;;5014840;28;20029;-55
2022/07/27 07:26:03;;;;;;;4.80;1.00;;;24.30;44.20;;;;;;5011670;28;20041;-52
2022/07/27 07:28:29;;;;;;;1.52;0.70;;;24.30;43.60;;;;;;5009395;28;20037;-54
2022/07/27 07:30:55;;;;;;;1.88;0.88;;;24.30;43.60;;;;;;5011312;28;20421;-52
2022/07/27 07:33:20;;;;;;;1.55;0.80;;;24.30;43.60;;;;;;5013363;28;20022;-55
2022/07/27 07:35:46;;;;;;;1.35;0.60;;;24.30;43.60;;;;;;5014498;28;20107;-56
2022/07/27 07:38:12;;;;;;;2.80;0.82;;;24.30;43.60;;;;;;5013605;28;20026;-56
2022/07/27 07:40:38;;;;;;;3.22;0.50;;;24.30;43.50;;;;;;5012506;28;20030;-53
2022/07/27 07:43:04;;;;;;;2.13;0.57;;;24.30;43.50;;;;;;5013204;28;20045;-53
2022/07/27 07:45:33;;;;;;;2.17;0.70;;;24.30;43.50;;;;;;5012676;28;20377;-57
2022/07/27 07:47:59;;;;;;;1.55;0.60;;;24.30;43.50;;;;;;5013023;28;20037;-55
2022/07/27 07:50:25;;;;;;;2.47;0.70;;;24.30;43.40;;;;;;5013532;28;20369;-56
2022/07/27 07:52:52;;;;;;;1.83;0.70;;;24.40;43.50;;;;;;5012996;28;20029;-56
2022/07/27 07:55:21;;;;;;;1.85;0.50;;;24.40;43.40;;;;;;5011936;28;20111;-54
2022/07/27 07:57:47;;;;;;;3.30;0.50;;;24.40;43.40;;;;;;5010063;28;20034;-55
2022/07/27 08:00:13;;;;;;;1.40;0.70;;;24.40;43.30;;;;;;5011482;28;20033;-54
2022/07/27 08:02:57;;;;;;;2.90;0.60;;;24.40;43.30;;;;;;5012410;28;20088;-55
2022/07/27 08:05:24;;;;;;;1.02;0.50;;;24.40;43.20;;;;;;5011691;28;20022;-55
2022/07/27 08:07:51;;;;;;;1.15;0.50;;;24.40;43.20;;;;;;5011920;28;20112;-52
2022/07/27 08:10:19;;;;;;;2.53;0.55;;;24.40;43.10;;;;;;5011217;28;20088;-57
2022/07/27 08:12:48;;;;;;;1.20;0.70;;;24.40;42.90;;;;;;5011925;28;20037;-55
2022/07/27 08:15:15;;;;;;;1.48;0.60;;;24.40;42.90;;;;;;5012916;28;20033;-53
2022/07/27 08:17:43;;;;;;;1.40;0.43;;;24.40;42.80;;;;;;5012673;28;20044;-57
2022/07/27 08:20:11;;;;;;;3.13;0.40;;;24.40;42.80;;;;;;5014853;28;20377;-52
2022/07/27 08:22:37;;;;;;;2.53;0.65;;;24.40;42.70;;;;;;5016875;28;20057;-56
2022/07/27 08:25:04;;;;;;;3.13;0.57;;;24.40;42.60;;;;;;5016862;28;20029;-55
2022/07/27 08:27:30;;;;;;;1.65;0.70;;;24.40;42.40;;;;;;5017117;28;20038;-53
2022/07/27 08:29:58;;;;;;;0.90;0.40;;;24.40;42.20;;;;;;5016684;28;20042;-54
2022/07/27 08:32:24;;;;;;;1.15;0.50;;;24.50;42.10;;;;;;5016845;28;20030;-53
2022/07/27 08:34:50;;;;;;;0.80;0.50;;;24.40;41.90;;;;;;5019404;28;20153;-55
2022/07/27 08:37:16;;;;;;;2.03;0.60;;;24.50;41.80;;;;;;5020360;28;20026;-56
2022/07/27 08:39:43;;;;;;;0.80;0.30;;;24.50;41.70;;;;;;5016451;28;20057;-54
2022/07/27 08:42:09;;;;;;;1.42;0.50;;;24.50;41.50;;;;;;5017370;28;20045;-55
2022/07/27 08:44:39;;;;;;;1.80;0.50;;;24.50;41.40;;;;;;5015272;28;20036;-53
2022/07/27 08:47:08;;;;;;;1.67;0.40;;;24.50;41.80;;;;;;5015170;28;20026;-50
2022/07/27 08:49:34;;;;;;;1.17;0.50;;;24.50;41.10;;;;;;5015280;28;20033;-52
2022/07/27 08:52:01;;;;;;;0.88;0.50;;;24.60;41.00;;;;;;5017089;28;20414;-52
2022/07/27 08:54:27;;;;;;;1.35;0.60;;;24.60;40.90;;;;;;5016319;28;20057;-48
2022/07/27 08:56:53;;;;;;;1.65;0.50;;;24.60;40.80;;;;;;5017013;28;20037;-54
2022/07/27 08:59:19;;;;;;;0.30;0.30;;;24.60;40.70;;;;;;5015622;28;20029;-53
2022/07/27 09:01:45;;;;;;;1.48;0.52;;;24.60;40.60;;;;;;5016789;28;20044;-55
2022/07/27 09:04:10;;;;;;;1.00;0.30;;;24.60;40.60;;;;;;5016794;28;20437;-56
2022/07/27 09:06:44;;;;;;;1.45;0.38;;;24.60;40.60;;;;;;5016619;28;20348;-55
2022/07/27 09:09:12;;;;;;;0.77;0.30;;;24.70;40.60;;;;;;5016325;28;20412;-56
2022/07/27 09:11:38;;;;;;;1.10;0.50;;;24.70;40.60;;;;;;5016506;28;20026;-55
2022/07/27 09:14:10;;;;;;;1.80;0.50;;;24.70;40.60;;;;;;5014887;28;20348;-52
2022/07/27 09:16:35;;;;;;;0.75;0.30;;;24.70;40.50;;;;;;5016308;28;20038;-55
2022/07/27 09:19:07;;;;;;;1.00;0.38;;;24.70;40.50;;;;;;5016780;28;20041;-56
2022/07/27 09:21:35;;;;;;;0.57;0.40;;;24.70;40.50;;;;;;5014076;28;20033;-56
2022/07/27 09:24:12;;;;;;;3.20;0.60;;;24.70;40.40;;;;;;5016182;28;20040;-55
2022/07/27 09:26:39;;;;;;;4.28;0.50;;;24.70;40.40;;;;;;5013977;28;20048;-54
2022/07/27 09:29:10;;;;;;;1.55;0.40;;;24.70;40.40;;;;;;5014228;28;20026;-53
2022/07/27 09:31:43;;;;;;;3.85;0.50;;;24.80;40.30;;;;;;5014138;28;20025;-54
2022/07/27 09:34:11;;;;;;;1.42;0.30;;;24.80;40.30;;;;;;5016126;28;20025;-56
2022/07/27 09:36:56;;;;;;;2.65;0.65;;;24.80;40.30;;;;;;5014118;28;20117;-54
2022/07/27 09:39:22;;;;;;;;;;;24.80;40.30;;;;;;5012382;28;20109;-54
2022/07/27 09:41:55;;;;;;;1.23;0.40;;;24.80;40.40;;;;;;5016233;28;19928;-55
2022/07/27 09:44:40;;;;;;;1.02;0.38;;;24.80;40.40;;;;;;5015921;28;20033;-56
2022/07/27 09:47:26;;;;;;;1.23;0.47;;;24.80;40.30;;;;;;5014520;28;20464;-54
2022/07/27 09:49:56;;;;;;;1.50;0.50;;;24.80;40.30;;;;;;5015760;28;20453;-56
2022/07/27 09:52:24;;;;;;;0.85;0.40;;;24.80;40.30;;;;;;5012962;28;20026;-55
2022/07/27 09:54:51;;;;;;;1.27;0.40;;;24.80;40.30;;;;;;5014893;28;20038;-54
2022/07/27 09:57:17;;;;;;;1.45;0.50;;;24.80;40.20;;;;;;5015429;28;20029;-55
2022/07/27 09:59:43;;;;;;;1.13;0.40;;;24.80;40.20;;;;;;5013932;28;20061;-54
2022/07/27 10:02:12;;;;;;;1.33;0.50;;;24.80;40.20;;;;;;5013780;28;20046;-53
2022/07/27 10:04:39;;;;;;;2.15;0.50;;;24.80;40.10;;;;;;5015765;28;20076;-55
2022/07/27 10:07:05;;;;;;;1.65;0.40;;;24.90;40.20;;;;;;5015229;28;20053;-55
2022/07/27 10:09:31;;;;;;;0.98;0.40;;;24.90;40.00;;;;;;5013185;28;20041;-52
2022/07/27 10:11:58;;;;;;;0.82;0.35;;;24.90;39.80;;;;;;5015183;28;20472;-53
2022/07/27 10:14:24;;;;;;;1.27;0.30;;;24.90;39.70;;;;;;5015463;28;20026;-55
2022/07/27 10:16:52;;;;;;;4.65;0.43;;;25.00;39.70;;;;;;5014415;28;20037;-54
2022/07/27 10:19:43;;;;;;;1.95;0.30;;;25.00;39.70;;;;;;5015509;28;20076;-49
2022/07/27 10:22:09;;;;;;;1.40;0.40;;;25.00;39.60;;;;;;5014609;28;20052;-53
2022/07/27 10:24:35;;;;;;;3.55;0.50;;;25.00;39.60;;;;;;5014665;28;20038;-55
2022/07/27 10:27:26;;;;;;;1.20;0.40;;;25.00;39.50;;;;;;5012343;28;20030;-50
2022/07/27 10:29:54;;;;;;;1.00;0.40;;;25.00;39.50;;;;;;5003866;28;20022;-54
2022/07/27 10:32:24;;;;;;;3.42;0.90;;;25.10;39.60;;;;;;5010926;28;20044;-55
2022/07/27 10:34:50;;;;;;;5.40;0.50;;;25.10;39.60;;;;;;5013324;28;20025;-55
2022/07/27 10:37:27;;;;;;;2.20;0.40;;;25.00;39.50;;;;;;5015446;28;20044;-56
2022/07/27 10:43:04;;;;;;;11.70;0.88;;;25.00;39.50;;;;;;5011166;28;20373;-59
2022/07/27 10:45:40;;;;;;;1.52;0.60;;;25.10;40.20;;;;;;5001196;28;20028;-61
2022/07/27 10:48:06;;;;;;;2.80;0.65;;;25.10;39.60;;;;;;5002569;28;20068;-56
2022/07/27 10:50:32;;;;;;;0.93;0.57;;;25.10;39.60;;;;;;5012142;28;20022;-61
2022/07/27 10:53:04;;;;;;;1.17;0.40;;;25.10;39.70;;;;;;5010708;28;20037;-57
2022/07/27 10:55:34;;;;;;;3.10;0.50;;;25.20;39.70;;;;;;5012594;28;20049;-56
2022/07/27 10:58:08;;;;;;;2.22;0.93;;;25.30;39.70;;;;;;5005183;28;20405;-60
2022/07/27 11:00:49;;;;;;;1.73;0.70;;;25.40;39.70;;;;;;5008356;28;20456;-57
2022/07/27 11:03:24;;;;;;;1.90;0.55;;;25.50;39.50;;;;;;5008151;28;20053;-61
2022/07/27 11:05:55;;;;;;;1.35;0.60;;;25.60;39.40;;;;;;5012355;28;20033;-58
2022/07/27 11:08:28;;;;;;;1.33;0.60;;;25.70;39.20;;;;;;5017067;28;20030;-59
2022/07/27 11:10:55;;;;;;;0.73;0.50;;;25.80;39.10;;;;;;5018225;28;20057;-57
2022/07/27 11:13:23;;;;;;;0.70;0.40;;;25.90;38.90;;;;;;5018780;28;20026;-59
2022/07/27 11:16:09;;;;;;;0.70;0.35;;;26.00;38.80;;;;;;5017954;28;20034;-58
2022/07/27 11:18:37;;;;;;;1.20;0.40;;;26.10;38.60;;;;;;5016387;28;20034;-58
2022/07/27 11:21:31;;;;;;;1.77;0.50;;;26.20;38.50;;;;;;5008986;28;20358;-60
2022/07/27 11:24:16;;;;;;;0.63;0.50;;;26.30;38.30;;;;;;5029432;28;20050;-56
2022/07/27 11:26:48;;;;;;;1.38;0.50;;;26.40;38.10;;;;;;5015799;28;20099;-55
2022/07/27 11:29:16;;;;;;;3.30;0.50;;;26.40;38.00;;;;;;5015621;28;20064;-59
2022/07/27 11:31:44;;;;;;;0.77;0.40;;;26.50;38.00;;;;;;5016571;28;20120;-61
2022/07/27 11:34:12;;;;;;;1.95;0.60;;;26.60;38.00;;;;;;5014963;28;20034;-59
2022/07/27 11:36:44;;;;;;;1.33;0.70;;;26.60;38.00;;;;;;5014853;28;20034;-59
2022/07/27 11:39:13;;;;;;;0.85;0.45;;;26.60;37.90;;;;;;5013788;28;20025;-59
2022/07/27 11:41:39;;;;;;;1.40;0.60;;;26.60;37.90;;;;;;5014540;28;20046;-58
2022/07/27 11:44:16;;;;;;;1.40;0.55;;;26.70;37.90;;;;;;5016064;28;20026;-60
2022/07/27 11:46:44;;;;;;;1.45;0.60;;;26.70;37.80;;;;;;5014217;28;20026;-58
2022/07/27 11:49:14;;;;;;;1.40;0.80;;;26.80;37.80;;;;;;5010916;28;20030;-57
2022/07/27 11:51:46;;;;;;;1.52;0.68;;;26.80;37.70;;;;;;5016889;28;20029;-60
2022/07/27 11:54:22;;;;;;;2.20;0.57;;;26.80;37.60;;;;;;5016886;28;20061;-59
2022/07/27 11:56:56;;;;;;;3.70;0.70;;;26.80;37.60;;;;;;5014284;28;20033;-60
2022/07/27 11:59:26;;;;;;;1.25;0.50;;;26.90;37.50;;;;;;5029657;28;20057;-58
2022/07/27 12:01:53;;;;;;;1.27;0.40;;;27.00;37.40;;;;;;5016353;28;20054;-59
2022/07/27 12:04:32;;;;;;;1.35;0.45;;;27.00;37.20;;;;;;5014461;28;20175;-62
2022/07/27 12:07:09;;;;;;;2.72;0.90;;;27.00;36.80;;;;;;5015478;28;20108;-60
2022/07/27 12:09:47;;;;;;;2.75;0.70;;;27.00;36.60;;;;;;5014890;28;20111;-61
2022/07/27 12:12:19;;;;;;;1.95;0.65;;;27.00;36.30;;;;;;5013823;28;20046;-60
2022/07/27 12:14:49;;;;;;;1.88;0.47;;;27.00;36.30;;;;;;5009261;28;20034;-59
2022/07/27 12:17:31;;;;;;;1.48;0.52;;;27.00;36.10;;;;;;5015823;28;20037;-60
2022/07/27 12:19:58;;;;;;;1.17;0.40;;;27.10;35.90;;;;;;5011462;28;20440;-60
2022/07/27 12:22:33;;;;;;;1.38;0.45;;;27.00;35.90;;;;;;5014604;28;20041;-58
2022/07/27 12:25:00;;;;;;;0.80;0.50;;;27.10;35.90;;;;;;5015699;28;20287;-59
2022/07/27 12:27:30;;;;;;;1.15;0.50;;;27.10;35.80;;;;;;5013339;28;20088;-59
2022/07/27 12:30:00;;;;;;;1.08;0.40;;;27.10;35.80;;;;;;5011753;28;20030;-59
2022/07/27 12:32:28;;;;;;;0.40;0.22;;;27.10;35.70;;;;;;5014197;28;20045;-55
2022/07/27 12:34:55;;;;;;;1.30;0.63;;;27.20;35.70;;;;;;5012595;28;20113;-59
2022/07/27 12:37:21;;;;;;;0.65;0.32;;;27.20;35.60;;;;;;5014505;28;20380;-58
2022/07/27 12:39:47;;;;;;;0.50;0.40;;;27.30;35.50;;;;;;5014434;28;20124;-59
2022/07/27 12:42:14;;;;;;;1.40;0.50;;;27.30;35.50;;;;;;5012023;28;20363;-57
2022/07/27 12:44:42;;;;;;;0.55;0.40;;;27.30;35.40;;;;;;5013365;28;20084;-55
2022/07/27 12:50:11;;;;;;;1.00;0.47;;;27.30;35.20;;;;;;5013091;28;20069;-55
2022/07/27 12:52:41;;;;;;;0.77;0.30;;;27.30;35.10;;;;;;5013708;28;20030;-58
2022/07/27 12:55:08;;;;;;;0.63;0.30;;;27.30;35.10;;;;;;5011250;28;20065;-59
2022/07/27 12:57:34;;;;;;;0.68;0.30;;;27.20;35.00;;;;;;5014404;28;20049;-56
2022/07/27 13:00:02;;;;;;;0.90;0.60;;;27.20;35.10;;;;;;5014163;28;20030;-58
2022/07/27 13:02:28;;;;;;;0.57;0.50;;;27.20;35.00;;;;;;5013363;28;20420;-59